Time;durP1;ratioP1;P1;durP2;ratioP2;P2;SDS_P1;SDS_P2;PMS_P1;PMS_P2;Temp;Humidity;BMP_temperature;BMP_pressure;BME280_temperature;BME280_humidity;BME280_pressure;Samples;Min_cycle;Max_cycle;Signal;HPM_P1;HPM_P2
2023/12/19 00:01:09;;;;;;;20.65;16.10;;;;;;;;;;5076738;28;20865;-79
2023/12/19 00:03:35;;;;;;;19.90;15.35;;;;;;;;;;5076234;28;20387;-79
2023/12/19 00:06:01;;;;;;;21.97;17.57;;;;;;;;;;5075589;28;20410;-79
2023/12/19 00:08:27;;;;;;;22.25;17.08;;;;;;;;;;5075184;28;20761;-79
2023/12/19 00:10:53;;;;;;;27.15;16.27;;;;;;;;;;5075921;28;20379;-80
2023/12/19 00:13:19;;;;;;;27.55;18.05;;;;;;;;;;5075204;28;20432;-79
2023/12/19 00:15:45;;;;;;;31.90;20.40;;;;;;;;;;5075724;28;20380;-79
2023/12/19 00:18:11;;;;;;;27.42;18.48;;;;;;;;;;5075579;28;20391;-80
2023/12/19 00:20:37;;;;;;;28.42;19.15;;;;;;;;;;5075711;28;20372;-80
2023/12/19 00:23:03;;;;;;;26.42;18.65;;;;;;;;;;5074828;28;20399;-79
2023/12/19 00:25:30;;;;;;;28.65;18.50;;;;;;;;;;5075424;28;20710;-78
2023/12/19 00:27:58;;;;;;;26.55;17.90;;;;;;;;;;5074786;28;20517;-79
2023/12/19 00:30:24;;;;;;;23.37;17.40;;;;;;;;;;5074834;28;20474;-78
2023/12/19 00:32:50;;;;;;;22.67;17.35;;;;;;;;;;5075155;28;20397;-78
2023/12/19 00:35:16;;;;;;;20.53;16.27;;;;;;;;;;5074795;28;20466;-79
2023/12/19 00:37:42;;;;;;;26.35;16.58;;;;;;;;;;5073975;28;20384;-78
2023/12/19 00:40:08;;;;;;;20.85;16.45;;;;;;;;;;5074316;28;20383;-78
2023/12/19 00:42:34;;;;;;;19.83;15.40;;;;;;;;;;5074403;28;20930;-78
2023/12/19 00:45:00;;;;;;;20.38;14.98;;;;;;;;;;5074296;28;20387;-78
2023/12/19 00:47:26;;;;;;;15.95;13.60;;;;;;;;;;5074737;28;20815;-78
2023/12/19 00:49:52;;;;;;;18.25;14.68;;;;;;;;;;5075079;28;20388;-79
2023/12/19 00:52:18;;;;;;;19.27;15.02;;;;;;;;;;5074288;28;20467;-79
2023/12/19 00:54:44;;;;;;;17.90;15.18;;;;;;;;;;5056755;28;20459;-78
2023/12/19 00:57:10;;;;;;;16.77;14.45;;;;;;;;;;5074640;28;21025;-78
2023/12/19 00:59:36;;;;;;;15.32;13.57;;;;;;;;;;5074854;28;20387;-78
2023/12/19 01:02:02;;;;;;;14.65;13.15;;;;;;;;;;5075238;28;20375;-78
2023/12/19 01:04:28;;;;;;;14.35;12.88;;;;;;;;;;5075438;28;20845;-78
2023/12/19 01:06:54;;;;;;;15.80;13.35;;;;;;;;;;5078878;28;20387;-78
2023/12/19 01:09:20;;;;;;;15.40;13.60;;;;;;;;;;5079396;28;20410;-79
2023/12/19 01:11:46;;;;;;;13.65;12.23;;;;;;;;;;5079141;28;20384;-78
2023/12/19 01:14:12;;;;;;;14.20;12.30;;;;;;;;;;5079234;28;20816;-78
2023/12/19 01:16:38;;;;;;;15.02;12.70;;;;;;;;;;5078898;28;20407;-78
2023/12/19 01:19:09;;;;;;;14.88;13.30;;;;;;;;;;5078971;28;20792;-78
2023/12/19 01:21:38;;;;;;;13.83;12.43;;;;;;;;;;5078933;28;20429;-79
2023/12/19 01:24:04;;;;;;;13.65;12.25;;;;;;;;;;5078945;28;20423;-80
2023/12/19 01:26:32;;;;;;;13.73;12.35;;;;;;;;;;5078946;28;20383;-79
2023/12/19 01:28:58;;;;;;;13.20;11.80;;;;;;;;;;5061175;28;20832;-79
2023/12/19 01:31:24;;;;;;;15.20;13.60;;;;;;;;;;5078651;28;20411;-79
2023/12/19 01:33:51;;;;;;;14.20;12.70;;;;;;;;;;5079232;28;20454;-79
2023/12/19 01:36:17;;;;;;;16.83;14.10;;;;;;;;;;5078789;28;20383;-79
2023/12/19 01:38:43;;;;;;;18.23;15.27;;;;;;;;;;5079027;28;20452;-79
2023/12/19 01:41:09;;;;;;;17.10;14.57;;;;;;;;;;5078709;28;20745;-79
2023/12/19 01:43:35;;;;;;;17.65;15.15;;;;;;;;;;5064513;28;20386;-79
2023/12/19 01:46:01;;;;;;;17.33;14.75;;;;;;;;;;5058825;28;20417;-79
2023/12/19 01:48:27;;;;;;;17.20;14.50;;;;;;;;;;5058380;28;20778;-79
2023/12/19 01:50:53;;;;;;;14.65;13.15;;;;;;;;;;5059219;28;20926;-79
2023/12/19 01:53:20;;;;;;;13.10;11.80;;;;;;;;;;5058818;28;20409;-79
2023/12/19 01:55:46;;;;;;;13.93;12.55;;;;;;;;;;5058548;28;20386;-79
2023/12/19 01:58:13;;;;;;;12.88;11.57;;;;;;;;;;5059068;28;20451;-79
2023/12/19 02:00:39;;;;;;;13.75;12.35;;;;;;;;;;5069115;28;20387;-79
2023/12/19 02:03:05;;;;;;;14.35;12.77;;;;;;;;;;5078534;28;20384;-79
2023/12/19 02:05:32;;;;;;;13.30;11.90;;;;;;;;;;5078488;28;20869;-79
2023/12/19 02:07:58;;;;;;;13.07;11.77;;;;;;;;;;5078866;28;20436;-79
2023/12/19 02:10:25;;;;;;;12.15;10.95;;;;;;;;;;5078467;28;20386;-79
2023/12/19 02:12:51;;;;;;;12.55;11.27;;;;;;;;;;5078370;28;20434;-79
2023/12/19 02:15:17;;;;;;;12.02;10.93;;;;;;;;;;5078480;28;20391;-79
2023/12/19 02:17:43;;;;;;;12.73;11.55;;;;;;;;;;5077225;28;20472;-79
2023/12/19 02:20:10;;;;;;;12.23;10.93;;;;;;;;;;5078216;28;20398;-79
2023/12/19 02:22:35;;;;;;;11.95;10.85;;;;;;;;;;5078239;28;20387;-79
2023/12/19 02:25:01;;;;;;;13.75;12.18;;;;;;;;;;5077998;28;20430;-79
2023/12/19 02:27:28;;;;;;;15.40;13.13;;;;;;;;;;5077587;28;20404;-79
2023/12/19 02:29:54;;;;;;;15.52;13.43;;;;;;;;;;5078510;28;20383;-79
2023/12/19 02:32:20;;;;;;;14.10;12.30;;;;;;;;;;5078529;28;20383;-79
2023/12/19 02:34:46;;;;;;;12.80;11.50;;;;;;;;;;5077772;28;20380;-79
2023/12/19 02:37:12;;;;;;;13.50;12.10;;;;;;;;;;5077890;28;20821;-79
2023/12/19 02:39:38;;;;;;;12.85;11.57;;;;;;;;;;5078098;28;20379;-79
2023/12/19 02:42:04;;;;;;;12.65;11.30;;;;;;;;;;5077556;28;20872;-79
2023/12/19 02:44:30;;;;;;;13.00;11.70;;;;;;;;;;5078022;28;20433;-79
2023/12/19 02:46:56;;;;;;;12.88;11.57;;;;;;;;;;5077770;28;20388;-79
2023/12/19 02:49:22;;;;;;;14.30;12.80;;;;;;;;;;5077473;28;20426;-79
2023/12/19 02:51:48;;;;;;;17.10;14.05;;;;;;;;;;5077263;28;20424;-79
2023/12/19 02:54:14;;;;;;;14.50;13.00;;;;;;;;;;5077465;28;20372;-79
2023/12/19 02:56:40;;;;;;;15.05;12.88;;;;;;;;;;5077455;28;20872;-79
2023/12/19 02:59:06;;;;;;;14.85;13.23;;;;;;;;;;5078186;28;20391;-79
2023/12/19 03:01:32;;;;;;;13.93;12.30;;;;;;;;;;5077877;28;20469;-79
2023/12/19 03:03:58;;;;;;;14.70;13.20;;;;;;;;;;5077461;28;20395;-79
2023/12/19 03:06:24;;;;;;;15.38;13.27;;;;;;;;;;5076371;28;20392;-79
2023/12/19 03:08:52;;;;;;;14.30;12.80;;;;;;;;;;5077080;28;20490;-79
2023/12/19 03:11:18;;;;;;;17.40;14.30;;;;;;;;;;5076780;28;20421;-79
2023/12/19 03:13:45;;;;;;;14.90;13.30;;;;;;;;;;5076558;28;20368;-79
2023/12/19 03:16:11;;;;;;;15.75;14.15;;;;;;;;;;5077134;28;20383;-79
2023/12/19 03:18:37;;;;;;;14.93;13.32;;;;;;;;;;5077354;28;20387;-79
2023/12/19 03:21:03;;;;;;;14.85;13.27;;;;;;;;;;5077458;28;20741;-79
2023/12/19 03:23:29;;;;;;;15.10;13.60;;;;;;;;;;5076913;28;20376;-79
2023/12/19 03:25:55;;;;;;;15.77;13.68;;;;;;;;;;5077259;28;20372;-79
2023/12/19 03:28:21;;;;;;;17.70;15.45;;;;;;;;;;5068659;28;20412;-79
2023/12/19 03:30:47;;;;;;;16.95;14.82;;;;;;;;;;5062606;28;20889;-79
2023/12/19 03:33:14;;;;;;;18.02;15.63;;;;;;;;;;5056324;28;20400;-79
2023/12/19 03:35:40;;;;;;;21.27;16.33;;;;;;;;;;5056905;28;20736;-79
2023/12/19 03:38:06;;;;;;;22.75;17.67;;;;;;;;;;5056727;28;20402;-79
2023/12/19 03:40:33;;;;;;;19.88;16.63;;;;;;;;;;5056101;28;20392;-79
2023/12/19 03:42:59;;;;;;;18.67;15.45;;;;;;;;;;5056177;28;20416;-79
2023/12/19 03:45:25;;;;;;;19.30;15.95;;;;;;;;;;5056357;28;20874;-79
2023/12/19 03:47:51;;;;;;;16.07;14.33;;;;;;;;;;5056405;28;20509;-79
2023/12/19 03:50:17;;;;;;;14.93;13.05;;;;;;;;;;5059954;28;20384;-79
2023/12/19 03:52:43;;;;;;;14.80;13.30;;;;;;;;;;5075833;28;20459;-79
2023/12/19 03:55:09;;;;;;;14.32;12.93;;;;;;;;;;5076611;28;20371;-79
2023/12/19 03:57:35;;;;;;;13.48;12.18;;;;;;;;;;5076428;28;20459;-79
2023/12/19 04:00:01;;;;;;;14.68;13.20;;;;;;;;;;5076186;28;20380;-79
2023/12/19 04:02:27;;;;;;;14.70;13.20;;;;;;;;;;5076631;28;20846;-79
2023/12/19 04:04:53;;;;;;;15.17;13.60;;;;;;;;;;5076147;28;20463;-79
2023/12/19 04:07:19;;;;;;;15.63;13.93;;;;;;;;;;5075754;28;20442;-79
2023/12/19 04:09:45;;;;;;;15.38;13.77;;;;;;;;;;5076323;28;20457;-79
2023/12/19 04:12:12;;;;;;;15.60;13.90;;;;;;;;;;5075970;28;20376;-79
2023/12/19 04:14:38;;;;;;;15.23;13.63;;;;;;;;;;5075908;28;20462;-79
2023/12/19 04:17:04;;;;;;;15.80;14.10;;;;;;;;;;5075257;28;20396;-79
2023/12/19 04:19:30;;;;;;;14.77;13.27;;;;;;;;;;5075794;28;21155;-79
2023/12/19 04:21:57;;;;;;;16.45;14.68;;;;;;;;;;5076269;28;20376;-79
2023/12/19 04:24:25;;;;;;;16.45;14.23;;;;;;;;;;5075841;28;20853;-79
2023/12/19 04:26:51;;;;;;;16.63;14.82;;;;;;;;;;5075004;28;20842;-79
2023/12/19 04:29:17;;;;;;;18.88;15.43;;;;;;;;;;5075113;28;20383;-79
2023/12/19 04:31:42;;;;;;;17.00;15.20;;;;;;;;;;5075382;28;20372;-79
2023/12/19 04:34:09;;;;;;;16.77;14.98;;;;;;;;;;5075610;28;20857;-79
2023/12/19 04:36:35;;;;;;;15.65;13.98;;;;;;;;;;5076185;28;20368;-79
2023/12/19 04:39:01;;;;;;;16.38;14.68;;;;;;;;;;5075671;28;20391;-79
2023/12/19 04:41:27;;;;;;;17.88;15.55;;;;;;;;;;5074932;28;20372;-79
2023/12/19 04:43:54;;;;;;;16.92;14.80;;;;;;;;;;5076068;28;20879;-79
2023/12/19 04:46:20;;;;;;;17.05;14.98;;;;;;;;;;5076123;28;20421;-79
2023/12/19 04:48:46;;;;;;;17.45;14.95;;;;;;;;;;5075128;28;20433;-79
2023/12/19 04:51:30;;;;;;;16.85;14.77;;;;;;;;;;5074573;28;20459;-78
2023/12/19 04:53:56;;;;;;;15.65;14.05;;;;;;;;;;5057369;28;20390;-78
2023/12/19 04:56:22;;;;;;;15.90;13.95;;;;;;;;;;5075454;28;20858;-78
2023/12/19 04:58:48;;;;;;;15.18;13.68;;;;;;;;;;5074943;28;20415;-78
2023/12/19 05:01:14;;;;;;;14.63;13.13;;;;;;;;;;5075018;28;20380;-78
2023/12/19 05:03:41;;;;;;;18.40;15.35;;;;;;;;;;5074845;28;20478;-78
2023/12/19 05:06:08;;;;;;;20.77;16.45;;;;;;;;;;5074048;28;20375;-80
2023/12/19 05:08:34;;;;;;;21.92;16.92;;;;;;;;;;5074379;28;20449;-78
2023/12/19 05:11:00;;;;;;;21.00;17.33;;;;;;;;;;5074799;28;20380;-77
2023/12/19 05:13:29;;;;;;;23.15;17.55;;;;;;;;;;5073899;28;20470;-78
2023/12/19 05:15:55;;;;;;;23.67;17.77;;;;;;;;;;5074032;28;20405;-78
2023/12/19 05:18:21;;;;;;;25.30;18.42;;;;;;;;;;5073912;28;20431;-78
2023/12/19 05:20:47;;;;;;;26.05;18.20;;;;;;;;;;5072921;28;20384;-78
2023/12/19 05:23:14;;;;;;;27.10;19.65;;;;;;;;;;5073083;28;20384;-78
2023/12/19 05:25:39;;;;;;;29.02;19.27;;;;;;;;;;5073844;28;20907;-78
2023/12/19 05:28:05;;;;;;;30.60;20.25;;;;;;;;;;5074411;28;20419;-78
2023/12/19 05:30:32;;;;;;;26.42;19.42;;;;;;;;;;5074265;28;20913;-78
2023/12/19 05:32:58;;;;;;;23.38;17.92;;;;;;;;;;5074523;28;20376;-78
2023/12/19 05:35:24;;;;;;;23.33;18.10;;;;;;;;;;5074418;28;20433;-79
2023/12/19 05:37:50;;;;;;;21.95;16.90;;;;;;;;;;5073985;28;20378;-78
2023/12/19 05:40:17;;;;;;;24.55;18.30;;;;;;;;;;5074046;28;20391;-78
2023/12/19 05:42:43;;;;;;;24.23;18.60;;;;;;;;;;5074084;28;20419;-78
2023/12/19 05:45:10;;;;;;;24.77;19.17;;;;;;;;;;5074724;28;20388;-78
2023/12/19 05:47:36;;;;;;;23.58;18.60;;;;;;;;;;5073832;28;20418;-78
2023/12/19 05:50:02;;;;;;;23.60;17.55;;;;;;;;;;5072620;28;20464;-78
2023/12/19 05:52:28;;;;;;;22.80;17.73;;;;;;;;;;5059208;28;20416;-79
2023/12/19 05:54:54;;;;;;;24.60;18.45;;;;;;;;;;5057883;28;20393;-78
2023/12/19 05:57:20;;;;;;;24.33;18.08;;;;;;;;;;5058330;28;20385;-78
2023/12/19 05:59:46;;;;;;;23.17;17.70;;;;;;;;;;5058751;28;20751;-78
2023/12/19 06:02:12;;;;;;;19.25;16.15;;;;;;;;;;5058506;28;20385;-79
2023/12/19 06:04:38;;;;;;;20.00;16.15;;;;;;;;;;5064368;28;20407;-79
2023/12/19 06:07:04;;;;;;;18.27;15.77;;;;;;;;;;5078514;28;20387;-79
2023/12/19 06:09:34;;;;;;;19.20;16.83;;;;;;;;;;5079045;28;20788;-79
2023/12/19 06:12:00;;;;;;;20.88;16.55;;;;;;;;;;5078671;28;20423;-79
2023/12/19 06:14:26;;;;;;;22.20;17.67;;;;;;;;;;5078616;28;20482;-79
2023/12/19 06:16:52;;;;;;;18.02;15.77;;;;;;;;;;5079648;28;20410;-80
2023/12/19 06:19:18;;;;;;;18.23;16.25;;;;;;;;;;5079010;28;20745;-80
2023/12/19 06:21:45;;;;;;;18.65;15.77;;;;;;;;;;5078176;28;20926;-79
2023/12/19 06:24:11;;;;;;;16.90;14.75;;;;;;;;;;5078576;28;20387;-79
2023/12/19 06:26:37;;;;;;;18.38;15.02;;;;;;;;;;5078374;28;20380;-79
2023/12/19 06:29:04;;;;;;;18.52;15.75;;;;;;;;;;5077723;28;20399;-80
2023/12/19 06:31:30;;;;;;;17.02;15.23;;;;;;;;;;5078202;28;20731;-80
2023/12/19 06:33:56;;;;;;;17.25;15.35;;;;;;;;;;5077718;28;20451;-80
2023/12/19 06:36:31;;;;;;;18.07;15.37;;;;;;;;;;5077561;28;20402;-80
2023/12/19 06:38:57;;;;;;;21.95;17.40;;;;;;;;;;5077782;28;20792;-80
2023/12/19 06:41:23;;;;;;;18.67;16.03;;;;;;;;;;5077464;28;20376;-79
2023/12/19 06:43:49;;;;;;;16.23;14.43;;;;;;;;;;5059663;28;20896;-80
2023/12/19 06:46:18;;;;;;;17.20;14.82;;;;;;;;;;5077875;28;20452;-80
2023/12/19 06:48:44;;;;;;;16.88;13.98;;;;;;;;;;5077950;28;20886;-82
2023/12/19 06:51:11;;;;;;;16.85;14.73;;;;;;;;;;5077205;28;20805;-81
2023/12/19 06:53:39;;;;;;;17.65;14.82;;;;;;;;;;5077623;28;20376;-81
2023/12/19 06:56:05;;;;;;;14.77;13.27;;;;;;;;;;5077760;28;20833;-80
2023/12/19 06:58:32;;;;;;;16.58;14.13;;;;;;;;;;5078144;28;20391;-80
2023/12/19 07:00:58;;;;;;;15.43;13.77;;;;;;;;;;5077505;28;20383;-80
2023/12/19 07:03:24;;;;;;;14.95;13.25;;;;;;;;;;5077349;28;20478;-78
2023/12/19 07:05:51;;;;;;;14.60;13.10;;;;;;;;;;5077699;28;20410;-79
2023/12/19 07:08:17;;;;;;;15.48;13.48;;;;;;;;;;5079387;28;20414;-80
2023/12/19 07:10:43;;;;;;;19.15;15.68;;;;;;;;;;5060157;28;20380;-79
2023/12/19 07:13:09;;;;;;;20.27;16.48;;;;;;;;;;5078715;28;20714;-80
2023/12/19 07:15:35;;;;;;;23.80;17.83;;;;;;;;;;5077968;28;20380;-79
2023/12/19 07:18:01;;;;;;;24.55;18.15;;;;;;;;;;5078004;28;20419;-80
2023/12/19 07:20:27;;;;;;;22.60;17.20;;;;;;;;;;5078097;28;20455;-80
2023/12/19 07:22:53;;;;;;;22.83;17.33;;;;;;;;;;5077819;28;20458;-79
2023/12/19 07:25:20;;;;;;;21.70;16.15;;;;;;;;;;5077571;28;20380;-80
2023/12/19 07:27:46;;;;;;;21.95;16.70;;;;;;;;;;5078715;28;20461;-79
2023/12/19 07:30:12;;;;;;;21.50;16.60;;;;;;;;;;5078400;28;20368;-80
2023/12/19 07:32:38;;;;;;;21.90;17.43;;;;;;;;;;5076295;28;20436;-78
2023/12/19 07:35:05;;;;;;;20.23;16.23;;;;;;;;;;5076636;28;20418;-79
2023/12/19 07:37:31;;;;;;;19.60;15.98;;;;;;;;;;5075535;28;20391;-78
2023/12/19 07:40:00;;;;;;;23.42;17.35;;;;;;;;;;5076332;28;20416;-79
2023/12/19 07:42:26;;;;;;;20.35;16.80;;;;;;;;;;5074578;28;20425;-80
2023/12/19 07:44:52;;;;;;;20.33;16.33;;;;;;;;;;5075911;28;20510;-80
2023/12/19 07:47:18;;;;;;;18.17;15.75;;;;;;;;;;5069278;28;20879;-79
2023/12/19 07:49:44;;;;;;;19.08;15.13;;;;;;;;;;5056159;28;20385;-79
2023/12/19 07:52:10;;;;;;;17.75;15.07;;;;;;;;;;5055528;28;20389;-78
2023/12/19 07:54:36;;;;;;;18.80;15.65;;;;;;;;;;5057265;28;20385;-78
2023/12/19 07:57:02;;;;;;;16.52;14.73;;;;;;;;;;5055514;28;20377;-78
2023/12/19 07:59:28;;;;;;;18.42;15.23;;;;;;;;;;5057789;28;20405;-80
2023/12/19 08:01:54;;;;;;;16.97;14.57;;;;;;;;;;5056318;28;20418;-80
2023/12/19 08:04:20;;;;;;;19.00;15.80;;;;;;;;;;5067988;28;20401;-80
2023/12/19 08:06:47;;;;;;;19.48;15.55;;;;;;;;;;5074907;28;20467;-79
2023/12/19 08:09:14;;;;;;;18.90;15.45;;;;;;;;;;5073913;28;20403;-80
2023/12/19 08:11:40;;;;;;;22.00;17.13;;;;;;;;;;5075954;28;20376;-80
2023/12/19 08:14:07;;;;;;;22.35;17.63;;;;;;;;;;5076612;28;20458;-79
2023/12/19 08:16:33;;;;;;;19.05;15.85;;;;;;;;;;5075620;28;20371;-81
2023/12/19 08:18:59;;;;;;;18.13;15.27;;;;;;;;;;5075761;28;20788;-79
2023/12/19 08:21:26;;;;;;;18.63;15.98;;;;;;;;;;5074180;28;20434;-81
2023/12/19 08:23:52;;;;;;;18.60;16.05;;;;;;;;;;5057121;28;20392;-79
2023/12/19 08:26:18;;;;;;;18.55;15.57;;;;;;;;;;5075092;28;20426;-81
2023/12/19 08:28:44;;;;;;;15.70;13.68;;;;;;;;;;5076453;28;20399;-81
2023/12/19 08:31:10;;;;;;;14.93;13.45;;;;;;;;;;5075585;28;20529;-81
2023/12/19 08:33:38;;;;;;;15.45;13.75;;;;;;;;;;5057585;28;20439;-81
2023/12/19 08:36:05;;;;;;;14.35;12.95;;;;;;;;;;5075633;28;20376;-81
2023/12/19 08:38:31;;;;;;;16.75;12.50;;;;;;;;;;5075897;28;20402;-82
2023/12/19 08:40:57;;;;;;;14.07;12.68;;;;;;;;;;5076851;28;20466;-82
2023/12/19 08:43:23;;;;;;;14.25;12.75;;;;;;;;;;5076957;28;20432;-81
2023/12/19 08:45:49;;;;;;;13.05;11.75;;;;;;;;;;5063860;28;20385;-81
2023/12/19 08:48:16;;;;;;;13.98;12.48;;;;;;;;;;5075240;28;20472;-81
2023/12/19 08:50:42;;;;;;;14.38;12.88;;;;;;;;;;5076430;28;20387;-81
2023/12/19 08:53:08;;;;;;;15.75;13.63;;;;;;;;;;5075359;28;20425;-82
2023/12/19 08:55:34;;;;;;;17.67;14.50;;;;;;;;;;5076367;28;20395;-81
2023/12/19 08:58:00;;;;;;;18.67;15.80;;;;;;;;;;5076333;28;20384;-81
2023/12/19 09:00:27;;;;;;;18.10;15.10;;;;;;;;;;5076537;28;20399;-81
2023/12/19 09:02:53;;;;;;;19.35;15.48;;;;;;;;;;5077358;28;20410;-81
2023/12/19 09:05:19;;;;;;;20.30;15.98;;;;;;;;;;5080240;28;20380;-80
2023/12/19 09:07:49;;;;;;;19.13;14.88;;;;;;;;;;5079778;28;20404;-80
2023/12/19 09:10:15;;;;;;;17.67;15.40;;;;;;;;;;5080803;28;20412;-80
2023/12/19 09:12:41;;;;;;;14.68;13.18;;;;;;;;;;5079896;28;20770;-80
2023/12/19 09:15:08;;;;;;;14.30;12.90;;;;;;;;;;5080164;28;20515;-80
2023/12/19 09:17:34;;;;;;;15.13;13.52;;;;;;;;;;5080406;28;20402;-80
2023/12/19 09:20:04;;;;;;;15.45;12.88;;;;;;;;;;5078075;28;20459;-80
2023/12/19 09:22:30;;;;;;;13.07;11.87;;;;;;;;;;5075086;28;20458;-80
2023/12/19 09:24:56;;;;;;;12.73;11.52;;;;;;;;;;5076967;28;20384;-79
2023/12/19 09:27:22;;;;;;;13.50;12.13;;;;;;;;;;5083278;28;20483;-79
2023/12/19 09:29:48;;;;;;;14.55;13.10;;;;;;;;;;5084115;28;20415;-79
2023/12/19 09:32:16;;;;;;;13.52;12.23;;;;;;;;;;5086255;28;20853;-79
2023/12/19 09:34:42;;;;;;;13.60;12.33;;;;;;;;;;5081345;28;20473;-81
2023/12/19 09:37:08;;;;;;;12.68;11.48;;;;;;;;;;5080790;28;20730;-81
2023/12/19 09:39:34;;;;;;;14.33;12.83;;;;;;;;;;5061629;28;20374;-82
2023/12/19 09:42:00;;;;;;;15.20;12.85;;;;;;;;;;5058521;28;20427;-82
2023/12/19 09:44:27;;;;;;;15.18;13.57;;;;;;;;;;5057508;28;20472;-82
2023/12/19 09:46:53;;;;;;;17.70;14.85;;;;;;;;;;5057625;28;20480;-82
2023/12/19 09:49:23;;;;;;;15.68;13.48;;;;;;;;;;5057763;28;20451;-83
2023/12/19 09:51:52;;;;;;;14.82;12.98;;;;;;;;;;5057725;28;20425;-82
2023/12/19 09:54:19;;;;;;;14.73;13.15;;;;;;;;;;5057911;28;20425;-81
2023/12/19 09:56:46;;;;;;;14.40;12.90;;;;;;;;;;5057923;28;20408;-81
2023/12/19 09:59:13;;;;;;;14.88;13.38;;;;;;;;;;5057614;28;20483;-81
2023/12/19 10:01:39;;;;;;;14.75;13.23;;;;;;;;;;5057785;28;20493;-83
2023/12/19 10:04:13;;;;;;;15.63;13.63;;;;;;;;;;5071772;28;20380;-84
2023/12/19 10:06:39;;;;;;;14.50;13.00;;;;;;;;;;5077020;28;20395;-81
2023/12/19 10:09:05;;;;;;;13.60;12.30;;;;;;;;;;5079739;28;20449;-82
2023/12/19 10:11:31;;;;;;;12.73;11.52;;;;;;;;;;5079670;28;20412;-81
2023/12/19 10:14:10;;;;;;;19.90;17.17;;;;;;;;;;5079377;28;20400;-82
2023/12/19 10:16:40;;;;;;;14.20;12.52;;;;;;;;;;5079256;28;20443;-78
2023/12/19 10:19:07;;;;;;;20.67;15.73;;;;;;;;;;5078698;28;20403;-81
2023/12/19 10:21:33;;;;;;;13.25;11.95;;;;;;;;;;5076991;28;20779;-83
2023/12/19 10:24:12;;;;;;;13.57;11.90;;;;;;;;;;5076758;28;20917;-80
2023/12/19 10:26:39;;;;;;;12.52;11.32;;;;;;;;;;5077527;28;20402;-81
2023/12/19 10:29:05;;;;;;;12.32;11.23;;;;;;;;;;5077744;28;20410;-80
2023/12/19 10:31:31;;;;;;;13.10;11.80;;;;;;;;;;5077698;28;20830;-83
2023/12/19 10:33:57;;;;;;;14.43;13.05;;;;;;;;;;5079326;28;20376;-80
2023/12/19 10:36:24;;;;;;;14.43;13.00;;;;;;;;;;5081235;28;20461;-79
2023/12/19 10:38:50;;;;;;;14.85;13.38;;;;;;;;;;5078457;28;20384;-80
2023/12/19 10:41:23;;;;;;;14.95;13.38;;;;;;;;;;5082069;28;20902;-80
2023/12/19 10:43:55;;;;;;;13.10;11.90;;;;;;;;;;5086795;28;20395;-80
2023/12/19 10:46:27;;;;;;;13.77;12.47;;;;;;;;;;5087921;28;20399;-80
2023/12/19 10:48:54;;;;;;;13.05;11.75;;;;;;;;;;5088073;28;20449;-80
2023/12/19 10:51:33;;;;;;;13.95;12.55;;;;;;;;;;5070486;28;20419;-79
2023/12/19 10:54:12;;;;;;;13.70;12.10;;;;;;;;;;5087152;28;20432;-80
2023/12/19 10:56:59;;;;;;;13.98;12.57;;;;;;;;;;5068249;28;20392;-80
2023/12/19 10:59:32;;;;;;;12.88;11.68;;;;;;;;;;5083882;28;20376;-80
2023/12/19 11:02:04;;;;;;;13.32;11.93;;;;;;;;;;5083423;28;20424;-80
2023/12/19 11:04:32;;;;;;;12.93;11.63;;;;;;;;;;5080738;28;20763;-81
2023/12/19 11:07:00;;;;;;;12.45;11.25;;;;;;;;;;5075385;28;20394;-81
2023/12/19 11:09:30;;;;;;;13.05;11.85;;;;;;;;;;5075330;28;20486;-81
2023/12/19 11:11:57;;;;;;;12.48;11.32;;;;;;;;;;5076044;28;20372;-82
2023/12/19 11:14:24;;;;;;;11.82;10.73;;;;;;;;;;5075594;28;20714;-82
2023/12/19 11:16:57;;;;;;;12.45;11.35;;;;;;;;;;5075487;28;20375;-81
2023/12/19 11:19:27;;;;;;;10.80;9.80;;;;;;;;;;5075525;28;20375;-81
2023/12/19 11:22:05;;;;;;;11.27;10.25;;;;;;;;;;5075949;28;20380;-79
2023/12/19 11:24:41;;;;;;;9.80;9.00;;;;;;;;;;5083530;28;20455;-80
2023/12/19 11:27:13;;;;;;;9.27;8.38;;;;;;;;;;5084366;28;20376;-81
2023/12/19 11:29:55;;;;;;;8.50;7.80;;;;;;;;;;5079283;28;20387;-82
2023/12/19 11:32:27;;;;;;;8.60;7.80;;;;;;;;;;5076082;28;20387;-81
2023/12/19 11:35:12;;;;;;;8.57;7.88;;;;;;;;;;5080189;28;20876;-81
2023/12/19 11:37:39;;;;;;;8.80;8.00;;;;;;;;;;5078127;28;20494;-81
2023/12/19 11:40:08;;;;;;;9.88;8.88;;;;;;;;;;5068253;28;20863;-81
2023/12/19 11:42:40;;;;;;;9.30;8.50;;;;;;;;;;5062784;28;20865;-82
2023/12/19 11:45:18;;;;;;;8.95;8.18;;;;;;;;;;5062600;28;20393;-83
2023/12/19 11:47:45;;;;;;;8.52;7.72;;;;;;;;;;5054979;28;20405;-81
2023/12/19 11:50:11;;;;;;;8.48;7.72;;;;;;;;;;5053957;28;20396;-80
2023/12/19 11:52:37;;;;;;;8.95;8.07;;;;;;;;;;5054948;28;20409;-81
2023/12/19 11:55:04;;;;;;;8.52;7.82;;;;;;;;;;5055382;28;20859;-82
2023/12/19 11:57:30;;;;;;;8.00;7.30;;;;;;;;;;5059534;28;20389;-81
2023/12/19 11:59:56;;;;;;;8.90;8.00;;;;;;;;;;5061505;28;20755;-80
2023/12/19 12:02:27;;;;;;;9.35;8.45;;;;;;;;;;5060858;28;20418;-81
2023/12/19 12:05:04;;;;;;;8.73;8.02;;;;;;;;;;5058359;28;20409;-81
2023/12/19 12:07:30;;;;;;;8.70;8.00;;;;;;;;;;5059908;28;20411;-80
2023/12/19 12:10:01;;;;;;;8.30;7.63;;;;;;;;;;5080940;28;20597;-80
2023/12/19 12:12:32;;;;;;;9.57;8.68;;;;;;;;;;5082107;28;20729;-79
2023/12/19 12:15:06;;;;;;;9.13;8.32;;;;;;;;;;5083600;28;20443;-81
2023/12/19 12:17:34;;;;;;;9.05;8.20;;;;;;;;;;5084783;28;20462;-80
2023/12/19 12:20:00;;;;;;;10.45;9.55;;;;;;;;;;5080554;28;20861;-81
2023/12/19 12:22:26;;;;;;;8.77;8.00;;;;;;;;;;5077239;28;20395;-82
2023/12/19 12:24:56;;;;;;;9.05;8.15;;;;;;;;;;5076345;28;20417;-82
2023/12/19 12:27:22;;;;;;;8.73;7.93;;;;;;;;;;5061451;28;20472;-80
2023/12/19 12:29:51;;;;;;;9.02;8.32;;;;;;;;;;5080895;28;20438;-81
2023/12/19 12:32:17;;;;;;;9.00;8.20;;;;;;;;;;5081261;28;20475;-81
2023/12/19 12:34:46;;;;;;;8.95;8.15;;;;;;;;;;5082050;28;20383;-80
2023/12/19 12:37:15;;;;;;;9.05;8.25;;;;;;;;;;5081728;28;20415;-79
2023/12/19 12:39:41;;;;;;;8.93;8.00;;;;;;;;;;5082707;28;20384;-80
2023/12/19 12:42:07;;;;;;;8.70;8.00;;;;;;;;;;5081990;28;20379;-80
2023/12/19 12:44:33;;;;;;;9.50;8.63;;;;;;;;;;5082053;28;20444;-80
2023/12/19 12:47:00;;;;;;;10.60;9.40;;;;;;;;;;5083230;28;20861;-81
2023/12/19 12:49:26;;;;;;;10.07;9.10;;;;;;;;;;5084397;28;20422;-80
2023/12/19 12:51:56;;;;;;;9.27;8.45;;;;;;;;;;5083497;28;20379;-80
2023/12/19 12:54:22;;;;;;;9.40;8.60;;;;;;;;;;5082350;28;20387;-80
2023/12/19 12:56:48;;;;;;;8.77;8.07;;;;;;;;;;5081563;28;20387;-80
2023/12/19 12:59:15;;;;;;;8.40;7.60;;;;;;;;;;5082380;28;20814;-80
2023/12/19 13:01:43;;;;;;;8.30;7.60;;;;;;;;;;5081043;28;20387;-80
2023/12/19 13:04:09;;;;;;;8.38;7.57;;;;;;;;;;5079364;28;20767;-80
2023/12/19 13:06:37;;;;;;;8.23;7.53;;;;;;;;;;5080817;28;20387;-79
2023/12/19 13:09:04;;;;;;;9.18;8.27;;;;;;;;;;5082167;28;20409;-80
2023/12/19 13:11:30;;;;;;;9.03;8.23;;;;;;;;;;5082002;28;20368;-81
2023/12/19 13:13:57;;;;;;;8.52;7.72;;;;;;;;;;5081777;28;20398;-80
2023/12/19 13:16:23;;;;;;;8.33;7.53;;;;;;;;;;5081958;28;20372;-80
2023/12/19 13:18:49;;;;;;;7.93;7.13;;;;;;;;;;5081535;28;20443;-80
2023/12/19 13:21:16;;;;;;;7.20;6.50;;;;;;;;;;5080760;28;20393;-81
2023/12/19 13:23:42;;;;;;;7.97;7.28;;;;;;;;;;5081769;28;20470;-80
2023/12/19 13:26:08;;;;;;;6.78;6.18;;;;;;;;;;5080935;28;20894;-80
2023/12/19 13:28:34;;;;;;;7.45;6.75;;;;;;;;;;5079982;28;20403;-79
2023/12/19 13:31:03;;;;;;;7.47;6.78;;;;;;;;;;5079175;28;20367;-79
2023/12/19 13:33:29;;;;;;;8.05;7.35;;;;;;;;;;5081045;28;20386;-80
2023/12/19 13:35:55;;;;;;;7.93;7.00;;;;;;;;;;5065089;28;20390;-80
2023/12/19 13:38:22;;;;;;;8.18;7.47;;;;;;;;;;5061492;28;20432;-80
2023/12/19 13:40:48;;;;;;;7.47;6.88;;;;;;;;;;5062143;28;20386;-80
2023/12/19 13:43:14;;;;;;;6.95;6.35;;;;;;;;;;5044935;28;20409;-79
2023/12/19 13:45:40;;;;;;;8.60;6.70;;;;;;;;;;5061299;28;20382;-79
2023/12/19 13:48:06;;;;;;;7.20;6.50;;;;;;;;;;5060653;28;20495;-80
2023/12/19 13:50:33;;;;;;;8.17;7.00;;;;;;;;;;5061363;28;20373;-80
2023/12/19 13:53:00;;;;;;;7.05;6.45;;;;;;;;;;5058467;28;20391;-79
2023/12/19 13:55:26;;;;;;;7.90;7.10;;;;;;;;;;5062038;28;20445;-80
2023/12/19 13:57:52;;;;;;;7.72;7.03;;;;;;;;;;5061007;28;20389;-80
2023/12/19 14:00:18;;;;;;;8.20;7.40;;;;;;;;;;5062862;28;20393;-80
2023/12/19 14:02:44;;;;;;;7.43;6.78;;;;;;;;;;5061812;28;20443;-81
2023/12/19 14:05:11;;;;;;;7.82;7.18;;;;;;;;;;5060264;28;21254;-82
2023/12/19 14:07:38;;;;;;;8.23;7.43;;;;;;;;;;5054716;28;20420;-82
2023/12/19 14:10:04;;;;;;;8.17;7.40;;;;;;;;;;5058548;28;20496;-83
2023/12/19 14:12:31;;;;;;;7.60;6.93;;;;;;;;;;5055451;28;20384;-80
2023/12/19 14:14:57;;;;;;;7.70;6.90;;;;;;;;;;5068207;28;20818;-81
2023/12/19 14:17:23;;;;;;;7.50;6.85;;;;;;;;;;5078968;28;20383;-80
2023/12/19 14:19:49;;;;;;;7.82;7.13;;;;;;;;;;5078863;28;20809;-81